Time;durP1;ratioP1;P1;durP2;ratioP2;P2;SDS_P1;SDS_P2;PMS_P1;PMS_P2;Temp;Humidity;BMP_temperature;BMP_pressure;BME280_temperature;BME280_humidity;BME280_pressure;Samples;Min_cycle;Max_cycle;Signal;HPM_P1;HPM_P2
2021/06/02 00:02:05;;;;;;;1.63;1.20;;;23.50;31.10;;;;;;5022314;28;20635;-54
2021/06/02 00:04:31;;;;;;;3.08;1.40;;;23.50;31.10;;;;;;5015309;28;20195;-54
2021/06/02 00:06:57;;;;;;;1.30;1.20;;;23.50;31.10;;;;;;5012590;28;20700;-51
2021/06/02 00:09:23;;;;;;;2.15;1.23;;;23.50;31.80;;;;;;5014599;28;20203;-51
2021/06/02 00:11:50;;;;;;;1.70;1.60;;;23.50;31.10;;;;;;5012896;28;20207;-53
2021/06/02 00:14:16;;;;;;;1.30;1.20;;;23.50;31.10;;;;;;5011643;28;20230;-53
2021/06/02 00:16:42;;;;;;;1.75;1.65;;;23.50;31.10;;;;;;5012161;28;20227;-55
2021/06/02 00:19:08;;;;;;;1.45;1.30;;;23.50;31.10;;;;;;5017405;28;20301;-56
2021/06/02 00:21:34;;;;;;;1.38;1.27;;;23.40;31.00;;;;;;5017733;28;20202;-54
2021/06/02 00:24:00;;;;;;;1.30;1.15;;;23.50;31.10;;;;;;5011800;28;20620;-54
2021/06/02 00:26:26;;;;;;;2.15;1.35;;;23.50;31.10;;;;;;5013107;28;20207;-52
2021/06/02 00:28:52;;;;;;;1.70;1.17;;;23.50;31.00;;;;;;5012031;28;20207;-51
2021/06/02 00:31:18;;;;;;;1.50;1.40;;;23.40;31.00;;;;;;5003342;28;20546;-54
2021/06/02 00:33:44;;;;;;;1.27;1.17;;;23.40;31.00;;;;;;5031898;28;20211;-55
2021/06/02 00:36:10;;;;;;;1.55;1.30;;;23.40;31.20;;;;;;5017027;28;20861;-55
2021/06/02 00:38:36;;;;;;;1.33;1.13;;;23.50;31.10;;;;;;5015649;28;20214;-53
2021/06/02 00:41:02;;;;;;;1.13;1.10;;;23.50;31.10;;;;;;5024093;28;20202;-52
2021/06/02 00:43:28;;;;;;;1.35;1.25;;;23.40;31.00;;;;;;5017435;28;20325;-54
2021/06/02 00:45:54;;;;;;;1.23;1.13;;;23.50;31.10;;;;;;5016965;28;20198;-54
2021/06/02 00:48:20;;;;;;;1.35;1.15;;;23.40;31.10;;;;;;5022347;28;20731;-52
2021/06/02 00:50:46;;;;;;;1.50;1.40;;;23.40;31.00;;;;;;5018228;28;20199;-55
2021/06/02 00:53:12;;;;;;;1.33;1.23;;;23.40;31.00;;;;;;5015868;28;20655;-51
2021/06/02 00:55:38;;;;;;;1.30;1.20;;;23.40;31.00;;;;;;5016621;28;20210;-55
2021/06/02 00:58:04;;;;;;;1.55;1.30;;;23.50;31.00;;;;;;5017694;28;20229;-53
2021/06/02 01:00:30;;;;;;;1.42;1.10;;;23.50;31.10;;;;;;5012697;28;20556;-54
2021/06/02 01:02:56;;;;;;;1.80;1.70;;;23.40;31.00;;;;;;5016562;28;20222;-50
2021/06/02 01:05:22;;;;;;;1.70;1.50;;;23.40;31.00;;;;;;5025729;28;20199;-53
2021/06/02 01:07:48;;;;;;;1.13;1.10;;;23.40;31.00;;;;;;5015478;28;20317;-55
2021/06/02 01:10:14;;;;;;;1.20;1.10;;;23.40;31.00;;;;;;5010496;28;20567;-54
2021/06/02 01:12:41;;;;;;;1.40;1.30;;;23.40;31.00;;;;;;5011178;28;20199;-56
2021/06/02 01:15:07;;;;;;;1.13;1.10;;;23.40;31.00;;;;;;5013926;28;20207;-54
2021/06/02 01:17:33;;;;;;;1.90;1.50;;;23.50;31.10;;;;;;5017589;28;20820;-57
2021/06/02 01:19:59;;;;;;;0.98;0.95;;;23.40;31.00;;;;;;5015770;28;20655;-54
2021/06/02 01:22:25;;;;;;;1.27;1.17;;;23.40;31.00;;;;;;5014611;28;20235;-53
2021/06/02 01:24:51;;;;;;;1.50;1.10;;;23.40;31.00;;;;;;5019200;28;20211;-54
2021/06/02 01:27:17;;;;;;;1.27;1.17;;;23.50;31.10;;;;;;5014321;28;20721;-53
2021/06/02 01:29:43;;;;;;;1.40;1.30;;;23.40;31.00;;;;;;5004291;28;20272;-52
2021/06/02 01:32:09;;;;;;;1.30;1.20;;;23.40;31.00;;;;;;5014685;28;20192;-53
2021/06/02 01:34:35;;;;;;;1.30;1.13;;;23.40;31.00;;;;;;5019288;28;20229;-52
2021/06/02 01:37:01;;;;;;;1.30;1.20;;;23.40;31.00;;;;;;5017492;28;20230;-53
2021/06/02 01:39:27;;;;;;;1.17;1.08;;;23.40;31.00;;;;;;5023538;28;20209;-52
2021/06/02 01:41:53;;;;;;;1.27;1.17;;;23.40;31.00;;;;;;5021842;28;20281;-54
2021/06/02 01:44:18;;;;;;;1.20;1.10;;;23.40;31.00;;;;;;5018593;28;20198;-51
2021/06/02 01:46:44;;;;;;;1.52;1.42;;;23.50;31.10;;;;;;5025487;28;20677;-54
2021/06/02 01:49:10;;;;;;;1.33;1.23;;;23.40;31.00;;;;;;5014830;28;20210;-55
2021/06/02 01:51:36;;;;;;;1.20;1.10;;;23.40;31.00;;;;;;5012244;28;20203;-55
2021/06/02 01:54:02;;;;;;;1.63;1.30;;;23.40;31.00;;;;;;5012916;28;20269;-52
2021/06/02 01:56:28;;;;;;;1.45;1.33;;;23.40;31.00;;;;;;5011777;28;20230;-55
2021/06/02 01:58:54;;;;;;;1.00;1.00;;;23.40;31.00;;;;;;5017786;28;20572;-54
2021/06/02 02:01:20;;;;;;;1.23;1.13;;;23.40;31.00;;;;;;5016258;28;20213;-54
2021/06/02 02:03:46;;;;;;;1.33;1.10;;;23.40;31.00;;;;;;5015450;28;20242;-52
2021/06/02 02:06:12;;;;;;;1.30;1.20;;;23.40;31.00;;;;;;5013715;28;20226;-55
2021/06/02 02:08:38;;;;;;;1.35;1.13;;;23.40;31.00;;;;;;5016658;28;20210;-54
2021/06/02 02:11:04;;;;;;;1.30;1.20;;;23.40;31.00;;;;;;5012481;28;20199;-55
2021/06/02 02:13:30;;;;;;;2.75;1.67;;;23.40;31.00;;;;;;5014127;28;20242;-54
2021/06/02 02:15:56;;;;;;;1.30;1.20;;;23.40;31.00;;;;;;5021980;28;20217;-55
2021/06/02 02:18:22;;;;;;;1.10;1.10;;;23.40;31.00;;;;;;5017634;28;20207;-54
2021/06/02 02:20:48;;;;;;;1.88;1.20;;;23.40;31.00;;;;;;5015173;28;20195;-55
2021/06/02 02:23:14;;;;;;;1.00;1.00;;;23.40;31.00;;;;;;5013801;28;20258;-55
2021/06/02 02:25:40;;;;;;;1.20;1.20;;;23.40;31.00;;;;;;5009863;28;20609;-57
2021/06/02 02:28:06;;;;;;;1.27;1.17;;;23.40;31.80;;;;;;4998267;28;20207;-57
2021/06/02 02:30:32;;;;;;;1.20;1.10;;;23.40;31.10;;;;;;5014408;28;20588;-57
2021/06/02 02:32:58;;;;;;;1.20;1.08;;;23.40;31.10;;;;;;5026466;28;20226;-56
2021/06/02 02:35:24;;;;;;;1.30;1.20;;;23.40;31.10;;;;;;5011487;28;21127;-57
2021/06/02 02:37:50;;;;;;;1.30;1.20;;;23.40;31.10;;;;;;5024103;28;20219;-56
2021/06/02 02:40:16;;;;;;;1.40;1.30;;;23.40;31.10;;;;;;5018656;28;20215;-57
2021/06/02 02:42:42;;;;;;;1.63;1.52;;;23.40;31.10;;;;;;5012420;28;20238;-57
2021/06/02 02:45:08;;;;;;;1.88;1.30;;;23.40;31.10;;;;;;5010817;28;20274;-56
2021/06/02 02:47:34;;;;;;;1.17;1.13;;;23.40;31.10;;;;;;5020449;28;20227;-53
2021/06/02 02:50:00;;;;;;;1.52;1.30;;;23.40;31.10;;;;;;5009651;28;20673;-54
2021/06/02 02:52:26;;;;;;;1.30;1.20;;;23.40;31.50;;;;;;5008799;28;20208;-55
2021/06/02 02:54:52;;;;;;;1.73;1.30;;;23.40;31.40;;;;;;5011698;28;20215;-53
2021/06/02 02:57:18;;;;;;;1.48;1.38;;;23.40;31.60;;;;;;5014090;28;20226;-51
2021/06/02 02:59:44;;;;;;;1.33;1.23;;;23.40;31.70;;;;;;5010070;28;20564;-51
2021/06/02 03:02:10;;;;;;;1.58;1.25;;;23.40;31.60;;;;;;5010852;28;20214;-52
2021/06/02 03:04:36;;;;;;;1.63;1.23;;;23.40;31.60;;;;;;5013969;28;20611;-53
2021/06/02 03:07:02;;;;;;;1.30;1.20;;;23.40;31.60;;;;;;5011615;28;20218;-55
2021/06/02 03:09:28;;;;;;;2.10;1.08;;;23.40;31.60;;;;;;5009850;28;20598;-55
2021/06/02 03:11:54;;;;;;;1.20;1.20;;;23.40;31.60;;;;;;5023522;28;20211;-55
2021/06/02 03:14:20;;;;;;;1.20;1.10;;;23.40;31.60;;;;;;5011747;28;20207;-56
2021/06/02 03:16:46;;;;;;;1.20;1.10;;;23.40;31.60;;;;;;5009932;28;20215;-57
2021/06/02 03:19:12;;;;;;;1.20;1.10;;;23.40;31.60;;;;;;5018565;28;20896;-51
2021/06/02 03:21:38;;;;;;;1.33;1.20;;;23.40;31.60;;;;;;5011840;28;20207;-56
2021/06/02 03:24:04;;;;;;;2.65;1.20;;;23.40;31.50;;;;;;5013404;28;20207;-54
2021/06/02 03:26:30;;;;;;;1.27;1.17;;;23.40;31.60;;;;;;5015714;28;20253;-52
2021/06/02 03:28:56;;;;;;;1.27;1.17;;;23.40;31.60;;;;;;5030166;28;20264;-52
2021/06/02 03:31:22;;;;;;;1.70;1.33;;;23.40;31.60;;;;;;5023096;28;20202;-53
2021/06/02 03:33:47;;;;;;;1.15;1.05;;;23.40;31.60;;;;;;5018229;28;20226;-52
2021/06/02 03:36:13;;;;;;;1.30;1.15;;;23.40;31.60;;;;;;5014381;28;20234;-52
2021/06/02 03:38:39;;;;;;;1.33;1.23;;;23.40;31.60;;;;;;5023302;28;20206;-54
2021/06/02 03:41:06;;;;;;;1.35;1.10;;;23.40;31.60;;;;;;5017907;28;22064;-52
2021/06/02 03:43:32;;;;;;;1.35;1.10;;;23.40;31.60;;;;;;5016806;28;20694;-56
2021/06/02 03:45:58;;;;;;;1.67;1.23;;;23.40;31.50;;;;;;5013026;28;20227;-58
2021/06/02 03:48:24;;;;;;;2.67;1.10;;;23.40;31.50;;;;;;5030066;28;20205;-56
2021/06/02 03:50:50;;;;;;;1.20;1.15;;;23.40;31.50;;;;;;5016846;28;20210;-49
2021/06/02 03:53:16;;;;;;;1.20;1.10;;;23.40;31.50;;;;;;5013482;28;20212;-55
2021/06/02 03:55:42;;;;;;;1.88;1.60;;;23.40;31.60;;;;;;5013702;28;20223;-55
2021/06/02 03:58:07;;;;;;;1.40;1.30;;;23.40;31.60;;;;;;5016822;28;20567;-56
2021/06/02 04:00:33;;;;;;;1.20;1.10;;;23.40;31.50;;;;;;5024793;28;20210;-52
2021/06/02 04:03:00;;;;;;;1.35;1.23;;;23.40;31.60;;;;;;5014842;28;20706;-53
2021/06/02 04:05:26;;;;;;;1.50;1.40;;;23.40;31.60;;;;;;5015102;28;20557;-52
2021/06/02 04:07:52;;;;;;;1.20;1.10;;;23.40;31.50;;;;;;5014692;28;20215;-53
2021/06/02 04:10:18;;;;;;;1.38;1.27;;;23.40;31.50;;;;;;5012904;28;20254;-53
2021/06/02 04:12:44;;;;;;;1.30;1.20;;;23.40;31.50;;;;;;5032560;28;20260;-55
2021/06/02 04:15:10;;;;;;;1.30;1.20;;;23.40;31.50;;;;;;5017328;28;20210;-51
2021/06/02 04:17:36;;;;;;;2.10;1.10;;;23.40;31.50;;;;;;5019554;28;20199;-55
2021/06/02 04:20:02;;;;;;;1.15;1.05;;;23.40;31.60;;;;;;5033404;28;20205;-54
2021/06/02 04:22:28;;;;;;;1.58;1.20;;;23.40;31.50;;;;;;5020028;28;20318;-56
2021/06/02 04:24:54;;;;;;;1.85;1.20;;;23.40;31.50;;;;;;5019267;28;20210;-57
2021/06/02 04:27:20;;;;;;;2.65;1.30;;;23.40;31.50;;;;;;5009859;28;20218;-56
2021/06/02 04:29:46;;;;;;;1.50;1.40;;;23.40;31.60;;;;;;5012544;28;20658;-55
2021/06/02 04:32:12;;;;;;;1.50;1.30;;;23.40;31.50;;;;;;5025308;28;20205;-56
2021/06/02 04:34:38;;;;;;;1.38;1.30;;;23.40;31.60;;;;;;5024660;28;20210;-55
2021/06/02 04:37:06;;;;;;;1.33;1.13;;;23.40;31.60;;;;;;5033138;28;20241;-56
2021/06/02 04:39:32;;;;;;;1.40;1.30;;;23.40;31.60;;;;;;5010209;28;20294;-50
2021/06/02 04:41:58;;;;;;;1.10;1.00;;;23.40;31.50;;;;;;5018870;28;20293;-54
2021/06/02 04:44:24;;;;;;;1.30;1.20;;;23.40;31.50;;;;;;5022285;28;20215;-52
2021/06/02 04:46:50;;;;;;;1.40;1.20;;;23.40;31.60;;;;;;5014015;28;20247;-50
2021/06/02 04:49:16;;;;;;;2.13;1.48;;;23.40;31.50;;;;;;5023619;28;20198;-50
2021/06/02 04:51:42;;;;;;;1.08;1.00;;;23.40;31.60;;;;;;5021232;28;20234;-53
2021/06/02 04:54:08;;;;;;;2.05;1.13;;;23.40;31.50;;;;;;5011948;28;20253;-53
2021/06/02 04:56:34;;;;;;;1.98;1.27;;;23.40;31.50;;;;;;5012078;28;20227;-56
2021/06/02 04:59:00;;;;;;;1.20;1.08;;;23.40;31.50;;;;;;5017587;28;20210;-56
2021/06/02 05:01:26;;;;;;;0.90;0.90;;;23.40;31.50;;;;;;5021040;28;20214;-56
2021/06/02 05:03:51;;;;;;;2.13;1.10;;;23.40;31.50;;;;;;5008417;28;20238;-55
2021/06/02 05:06:17;;;;;;;1.15;1.05;;;23.40;31.60;;;;;;5017484;28;20638;-57
2021/06/02 05:08:43;;;;;;;1.30;1.20;;;23.40;31.50;;;;;;5012234;28;20230;-56
2021/06/02 05:11:09;;;;;;;1.27;1.17;;;23.40;31.60;;;;;;5015632;28;20200;-56
2021/06/02 05:13:35;;;;;;;1.33;1.23;;;23.40;31.50;;;;;;5017940;28;20681;-54
2021/06/02 05:16:01;;;;;;;1.38;1.10;;;23.40;31.50;;;;;;5012823;28;20238;-57
2021/06/02 05:18:27;;;;;;;2.15;1.20;;;23.40;31.60;;;;;;5010023;28;20832;-50
2021/06/02 05:23:34;;;;;;;1.38;1.23;;;23.40;31.60;;;;;;5012890;28;20245;-54
2021/06/02 05:26:00;;;;;;;1.00;1.00;;;23.40;31.60;;;;;;5016676;28;20777;-54
2021/06/02 05:28:26;;;;;;;1.58;1.13;;;23.40;31.60;;;;;;5012489;28;20242;-55
2021/06/02 05:30:52;;;;;;;1.20;1.10;;;23.40;31.60;;;;;;5018079;28;20735;-54
2021/06/02 05:33:18;;;;;;;1.30;1.20;;;23.40;31.60;;;;;;5016511;28;20210;-54
2021/06/02 05:35:44;;;;;;;1.50;1.40;;;23.40;31.60;;;;;;5032008;28;20233;-56
2021/06/02 05:38:10;;;;;;;1.20;1.10;;;23.40;31.60;;;;;;5028039;28;20201;-56
2021/06/02 05:40:36;;;;;;;1.27;1.02;;;23.40;31.60;;;;;;5011648;28;20203;-58
2021/06/02 05:43:02;;;;;;;1.10;1.10;;;23.40;31.60;;;;;;5012286;28;20741;-56
2021/06/02 05:45:28;;;;;;;1.20;1.10;;;23.40;31.60;;;;;;5031539;28;20288;-58
2021/06/02 05:47:54;;;;;;;1.48;1.10;;;23.30;31.50;;;;;;5029198;28;20233;-55
2021/06/02 05:50:20;;;;;;;1.30;1.10;;;23.40;31.60;;;;;;5011235;28;20265;-56
2021/06/02 05:52:46;;;;;;;2.28;1.20;;;23.40;31.60;;;;;;5026166;28;20564;-57
2021/06/02 05:55:12;;;;;;;0.90;0.90;;;23.30;31.50;;;;;;5029982;28;20283;-54
2021/06/02 05:57:38;;;;;;;1.38;1.30;;;23.40;31.60;;;;;;5015540;28;20218;-52
2021/06/02 06:00:04;;;;;;;1.42;1.33;;;23.40;31.60;;;;;;5010849;28;20642;-50
2021/06/02 06:02:30;;;;;;;1.08;1.05;;;23.40;31.60;;;;;;5015412;28;20699;-52
2021/06/02 06:04:56;;;;;;;1.77;1.10;;;23.40;31.60;;;;;;5011578;28;20218;-55
2021/06/02 06:07:22;;;;;;;1.17;1.08;;;23.40;31.60;;;;;;5011655;28;20203;-54
2021/06/02 06:09:48;;;;;;;1.35;1.20;;;23.40;31.60;;;;;;5009195;28;20230;-55
2021/06/02 06:12:14;;;;;;;1.48;1.10;;;23.40;31.60;;;;;;4998541;28;20245;-51
2021/06/02 06:14:40;;;;;;;1.40;1.20;;;23.40;31.70;;;;;;5009680;28;20206;-56
2021/06/02 06:17:06;;;;;;;1.10;1.02;;;23.40;31.60;;;;;;5010492;28;20658;-57
2021/06/02 06:19:32;;;;;;;1.40;1.23;;;23.40;31.60;;;;;;5012859;28;20250;-54
2021/06/02 06:21:58;;;;;;;1.20;1.10;;;23.40;31.70;;;;;;5024413;28;20199;-56
2021/06/02 06:24:24;;;;;;;2.10;1.23;;;23.40;31.70;;;;;;4995869;28;20204;-55
2021/06/02 06:26:50;;;;;;;4.60;1.40;;;23.40;32.60;;;;;;5018251;28;20325;-46
2021/06/02 06:29:16;;;;;;;2.45;2.22;;;23.40;32.60;;;;;;5002958;28;20670;-48
2021/06/02 06:31:42;;;;;;;4.05;3.20;;;23.30;28.80;;;;;;5008693;28;20223;-48
2021/06/02 06:34:08;;;;;;;6.68;2.90;;;22.20;27.50;;;;;;4998307;28;20215;-56
2021/06/02 06:36:34;;;;;;;3.65;3.17;;;21.80;28.20;;;;;;5015954;28;20245;-53
2021/06/02 06:39:00;;;;;;;3.73;2.53;;;20.80;29.00;;;;;;5027768;28;20202;-50
2021/06/02 06:41:26;;;;;;;5.90;2.63;;;21.70;29.70;;;;;;5009732;28;20202;-51
2021/06/02 06:43:52;;;;;;;4.67;2.60;;;22.20;29.90;;;;;;5018904;28;20686;-51
2021/06/02 06:46:18;;;;;;;5.72;2.45;;;22.60;30.00;;;;;;5020077;28;20258;-49
2021/06/02 06:48:44;;;;;;;4.87;2.50;;;22.80;30.00;;;;;;5005290;28;20293;-51
2021/06/02 06:51:12;;;;;;;2.92;2.08;;;22.90;30.20;;;;;;5001591;28;20282;-52
2021/06/02 06:53:38;;;;;;;4.47;2.38;;;23.00;30.40;;;;;;5005537;28;20550;-54
2021/06/02 06:56:05;;;;;;;4.25;2.67;;;23.10;30.60;;;;;;5004864;28;20288;-52
2021/06/02 06:58:31;;;;;;;6.72;2.13;;;23.10;30.70;;;;;;5013150;28;20264;-52
2021/06/02 07:00:57;;;;;;;2.47;2.28;;;23.20;30.90;;;;;;5024671;28;20206;-54
2021/06/02 07:03:23;;;;;;;2.47;2.28;;;23.20;31.00;;;;;;5009575;28;20645;-54
2021/06/02 07:05:49;;;;;;;3.05;1.83;;;23.20;31.10;;;;;;5007898;28;20218;-53
2021/06/02 07:08:15;;;;;;;5.03;2.35;;;23.20;31.30;;;;;;5009064;28;20214;-53
2021/06/02 07:10:41;;;;;;;3.00;2.55;;;23.30;32.80;;;;;;4996822;28;20644;-59
2021/06/02 07:13:07;;;;;;;6.20;2.50;;;23.40;32.60;;;;;;5014469;28;20214;-49
2021/06/02 07:15:33;;;;;;;9.15;2.35;;;23.40;33.20;;;;;;5005403;28;20305;-50
2021/06/02 07:17:59;;;;;;;3.65;2.05;;;23.50;33.70;;;;;;5023238;28;20546;-52
2021/06/02 07:20:25;;;;;;;2.80;1.95;;;23.50;33.90;;;;;;5024710;28;20221;-51
2021/06/02 07:22:51;;;;;;;4.20;1.80;;;23.50;33.40;;;;;;4991842;28;20215;-51
2021/06/02 07:25:17;;;;;;;2.25;1.70;;;23.50;33.60;;;;;;5014056;28;20222;-55
2021/06/02 07:27:43;;;;;;;1.67;1.58;;;23.40;33.30;;;;;;5012736;28;20218;-51
2021/06/02 07:30:09;;;;;;;3.38;2.10;;;23.40;32.60;;;;;;5022318;28;20208;-53
2021/06/02 07:32:35;;;;;;;3.15;2.13;;;23.40;32.60;;;;;;5011850;28;20211;-53
2021/06/02 07:35:01;;;;;;;2.83;1.95;;;23.40;32.60;;;;;;5015246;28;20222;-54
2021/06/02 07:37:27;;;;;;;6.53;2.40;;;23.50;32.40;;;;;;5021988;28;20204;-48
2021/06/02 07:39:53;;;;;;;3.83;2.42;;;23.40;32.10;;;;;;5008902;28;20577;-49
2021/06/02 07:42:19;;;;;;;2.78;1.80;;;23.40;32.10;;;;;;5016399;28;20227;-55
2021/06/02 07:44:45;;;;;;;4.05;1.88;;;23.50;31.90;;;;;;5022998;28;20227;-59
2021/06/02 07:47:11;;;;;;;3.58;1.98;;;23.50;31.40;;;;;;5013358;28;20655;-56
2021/06/02 07:49:37;;;;;;;2.10;1.83;;;23.40;30.50;;;;;;5013212;28;20231;-56
2021/06/02 07:52:03;;;;;;;3.80;2.15;;;23.40;31.00;;;;;;5026345;28;20246;-55
2021/06/02 07:54:29;;;;;;;2.67;2.33;;;23.40;30.30;;;;;;5009502;28;20273;-59
2021/06/02 07:56:55;;;;;;;3.65;2.30;;;23.40;29.60;;;;;;5020261;28;20634;-49
2021/06/02 07:59:21;;;;;;;3.97;2.47;;;23.40;30.00;;;;;;5013692;28;20268;-49
2021/06/02 08:01:48;;;;;;;3.63;2.38;;;23.40;30.00;;;;;;5022442;28;20547;-48
2021/06/02 08:04:14;;;;;;;3.80;2.40;;;23.50;29.80;;;;;;5022545;28;20218;-59
2021/06/02 08:06:39;;;;;;;6.97;2.15;;;23.50;30.00;;;;;;5006330;28;20196;-52
2021/06/02 08:09:05;;;;;;;3.70;2.22;;;23.50;29.90;;;;;;5020616;28;20195;-49
2021/06/02 08:11:31;;;;;;;2.95;2.25;;;23.50;30.00;;;;;;5020508;28;20218;-52
2021/06/02 08:13:57;;;;;;;4.32;1.92;;;23.50;29.80;;;;;;5030305;28;20206;-54
2021/06/02 08:16:23;;;;;;;3.88;2.22;;;23.50;29.80;;;;;;5023080;28;20984;-54
2021/06/02 08:18:50;;;;;;;3.25;2.38;;;23.50;29.60;;;;;;5017089;28;20207;-51
2021/06/02 08:21:16;;;;;;;2.70;2.50;;;23.40;29.70;;;;;;5027866;28;20648;-54
2021/06/02 08:23:42;;;;;;;3.92;2.13;;;23.40;29.40;;;;;;5014806;28;20243;-52
2021/06/02 08:26:09;;;;;;;2.78;2.08;;;23.40;29.70;;;;;;5020147;28;20215;-50
2021/06/02 08:28:35;;;;;;;2.40;2.15;;;23.40;29.80;;;;;;5010568;28;20196;-53
2021/06/02 08:31:01;;;;;;;3.47;2.80;;;23.50;30.00;;;;;;5027180;28;20198;-53
2021/06/02 08:33:26;;;;;;;3.10;2.80;;;23.40;28.30;;;;;;5017026;28;20215;-50
2021/06/02 08:35:52;;;;;;;4.38;3.22;;;21.90;27.70;;;;;;5007556;28;20691;-52
2021/06/02 08:38:18;;;;;;;6.18;3.00;;;21.50;27.90;;;;;;5014510;28;20207;-51
2021/06/02 08:40:44;;;;;;;3.22;2.67;;;21.40;28.10;;;;;;5020238;28;20270;-52
2021/06/02 08:43:10;;;;;;;5.37;2.47;;;22.00;28.60;;;;;;5015046;28;20222;-50
2021/06/02 08:45:36;;;;;;;2.43;2.07;;;22.50;28.40;;;;;;5013440;28;20234;-50
2021/06/02 08:48:02;;;;;;;2.90;2.20;;;22.70;28.20;;;;;;5010512;28;20201;-48
2021/06/02 08:50:28;;;;;;;2.38;2.17;;;22.90;28.20;;;;;;5015936;28;20206;-50
2021/06/02 08:52:54;;;;;;;3.83;2.50;;;23.00;28.30;;;;;;5007549;28;20210;-50
2021/06/02 08:55:20;;;;;;;4.82;2.40;;;23.10;28.70;;;;;;5006965;28;20227;-48
2021/06/02 08:57:46;;;;;;;4.07;2.42;;;23.20;29.50;;;;;;5014851;28;20199;-50
2021/06/02 09:00:12;;;;;;;3.40;2.30;;;23.20;29.10;;;;;;5011580;28;20219;-49
2021/06/02 09:02:38;;;;;;;2.78;2.35;;;23.20;29.20;;;;;;5016377;28;20250;-53
2021/06/02 09:05:04;;;;;;;4.40;2.08;;;23.30;29.30;;;;;;5014332;28;20233;-51
2021/06/02 09:07:30;;;;;;;5.18;2.13;;;23.30;29.50;;;;;;5018271;28;20199;-47
2021/06/02 09:09:57;;;;;;;2.83;2.03;;;23.30;29.70;;;;;;5002430;28;20223;-53
2021/06/02 09:12:23;;;;;;;4.38;2.38;;;23.30;29.70;;;;;;5000656;28;20524;-48
2021/06/02 09:14:49;;;;;;;2.67;2.45;;;23.30;29.90;;;;;;5000950;28;20271;-48
2021/06/02 09:17:15;;;;;;;5.55;2.53;;;23.30;29.90;;;;;;5004678;28;20207;-53
2021/06/02 09:19:41;;;;;;;2.10;1.90;;;23.30;30.00;;;;;;5012297;28;20207;-49
2021/06/02 09:22:07;;;;;;;4.40;2.10;;;23.40;30.30;;;;;;5020884;28;20234;-49
2021/06/02 09:24:33;;;;;;;3.55;2.30;;;23.40;30.20;;;;;;5006969;28;20706;-51
2021/06/02 09:26:59;;;;;;;3.40;2.00;;;23.40;30.20;;;;;;5014222;28;20207;-52
2021/06/02 09:29:25;;;;;;;3.33;1.95;;;23.40;30.30;;;;;;5012813;28;21021;-44
2021/06/02 09:31:51;;;;;;;2.40;2.20;;;23.40;30.30;;;;;;5024649;28;20256;-48
2021/06/02 09:34:17;;;;;;;2.40;2.20;;;23.40;30.10;;;;;;5022376;28;20281;-47
2021/06/02 09:36:43;;;;;;;3.38;2.55;;;23.40;30.00;;;;;;5009023;28;20203;-51
2021/06/02 09:39:09;;;;;;;2.10;2.00;;;23.40;29.90;;;;;;5009261;28;20204;-51
2021/06/02 09:41:35;;;;;;;2.85;2.20;;;23.40;30.00;;;;;;5001198;28;20496;-46
2021/06/02 09:44:01;;;;;;;2.33;1.83;;;23.40;29.90;;;;;;5010403;28;20238;-48
2021/06/02 09:46:27;;;;;;;3.00;2.35;;;23.40;29.90;;;;;;5013387;28;20578;-50
2021/06/02 09:48:53;;;;;;;3.47;2.22;;;23.40;30.10;;;;;;5015420;28;20203;-47
2021/06/02 09:51:19;;;;;;;2.53;2.00;;;23.40;30.20;;;;;;5013426;28;20287;-46
2021/06/02 09:53:45;;;;;;;2.40;2.00;;;23.50;30.00;;;;;;5021245;28;20213;-48
2021/06/02 09:56:11;;;;;;;2.30;2.10;;;23.50;29.90;;;;;;5012323;28;20207;-47
2021/06/02 09:58:37;;;;;;;2.60;2.38;;;23.50;29.90;;;;;;5017227;28;20658;-45
2021/06/02 10:01:03;;;;;;;2.75;2.20;;;23.50;30.00;;;;;;5016884;28;20206;-48
2021/06/02 10:03:32;;;;;;;2.70;2.33;;;23.50;29.90;;;;;;5026686;28;20238;-48
2021/06/02 10:05:58;;;;;;;2.92;2.20;;;23.50;30.20;;;;;;5019366;28;20329;-48
2021/06/02 10:08:24;;;;;;;3.22;2.10;;;23.50;30.30;;;;;;5025200;28;20855;-46
2021/06/02 10:10:50;;;;;;;3.42;2.17;;;23.50;30.40;;;;;;5022612;28;20266;-47
2021/06/02 10:13:16;;;;;;;2.05;1.95;;;23.50;30.50;;;;;;5026582;28;20211;-48
2021/06/02 10:15:42;;;;;;;2.58;1.80;;;23.50;30.70;;;;;;5015301;28;20246;-46
2021/06/02 10:18:08;;;;;;;2.15;1.92;;;23.50;30.90;;;;;;5014879;28;20212;-50
2021/06/02 10:20:34;;;;;;;3.45;2.30;;;23.50;30.90;;;;;;5010924;28;20203;-49
2021/06/02 10:23:00;;;;;;;2.20;1.95;;;23.50;30.90;;;;;;4994700;28;20314;-46
2021/06/02 10:25:26;;;;;;;2.40;1.95;;;23.50;31.00;;;;;;5007113;28;20635;-49
2021/06/02 10:27:54;;;;;;;2.33;2.13;;;23.50;30.90;;;;;;5017493;28;20215;-55
2021/06/02 10:30:21;;;;;;;2.08;1.90;;;23.50;31.00;;;;;;5011090;28;20203;-49
2021/06/02 10:32:47;;;;;;;3.22;2.13;;;23.60;31.00;;;;;;5010211;28;20286;-50
2021/06/02 10:35:13;;;;;;;3.17;2.20;;;23.60;31.20;;;;;;5016561;28;20238;-50
2021/06/02 10:37:39;;;;;;;2.25;2.05;;;23.60;31.50;;;;;;5025436;28;20657;-47
2021/06/02 10:40:05;;;;;;;3.03;2.30;;;23.70;31.10;;;;;;5024140;28;20199;-46
2021/06/02 10:42:31;;;;;;;3.38;2.20;;;23.70;31.00;;;;;;5015269;28;20234;-44
2021/06/02 10:44:57;;;;;;;2.50;1.90;;;23.70;31.00;;;;;;5016611;28;20654;-47
2021/06/02 10:47:23;;;;;;;3.90;2.08;;;23.70;31.40;;;;;;5015285;28;20218;-46
2021/06/02 10:49:49;;;;;;;3.25;1.90;;;23.70;31.50;;;;;;5010274;28;20560;-46
2021/06/02 10:52:15;;;;;;;2.80;1.77;;;23.60;31.30;;;;;;5010173;28;20210;-46
2021/06/02 10:54:41;;;;;;;4.20;2.10;;;23.60;31.40;;;;;;5010721;28;20567;-47
2021/06/02 10:57:07;;;;;;;4.35;2.28;;;23.60;31.60;;;;;;5010793;28;20203;-47
2021/06/02 10:59:33;;;;;;;6.57;2.58;;;23.60;31.70;;;;;;5009880;28;20207;-46
2021/06/02 11:01:59;;;;;;;3.70;2.25;;;23.60;31.50;;;;;;5010376;28;20203;-45
2021/06/02 11:04:25;;;;;;;3.45;1.90;;;23.60;31.50;;;;;;5009937;28;20230;-48
2021/06/02 11:06:51;;;;;;;3.50;2.10;;;23.60;31.50;;;;;;5010518;28;20203;-45
2021/06/02 11:09:18;;;;;;;2.33;1.88;;;23.60;31.40;;;;;;5010241;28;20199;-47
2021/06/02 11:11:44;;;;;;;2.30;1.80;;;23.60;31.40;;;;;;5010477;28;20207;-49
2021/06/02 11:14:10;;;;;;;1.85;1.75;;;23.60;31.40;;;;;;5013469;28;20293;-45
2021/06/02 11:16:36;;;;;;;3.67;2.13;;;23.60;31.40;;;;;;5030269;28;20517;-47
2021/06/02 11:19:02;;;;;;;2.65;2.05;;;23.50;31.30;;;;;;5029657;28;20210;-47
2021/06/02 11:21:28;;;;;;;3.28;2.20;;;23.50;31.30;;;;;;5027699;28;20206;-48
2021/06/02 11:23:54;;;;;;;4.22;2.10;;;23.50;31.30;;;;;;4998294;28;20262;-49
2021/06/02 11:26:20;;;;;;;3.53;2.03;;;23.50;31.30;;;;;;4999590;28;20253;-45
2021/06/02 11:28:47;;;;;;;2.80;2.15;;;23.50;31.30;;;;;;5009799;28;20214;-48
2021/06/02 11:31:13;;;;;;;4.40;2.00;;;23.50;31.30;;;;;;5009706;28;20211;-47
2021/06/02 11:33:39;;;;;;;2.17;1.98;;;23.50;31.20;;;;;;5009780;28;20250;-47
2021/06/02 11:36:07;;;;;;;1.90;1.70;;;23.60;31.40;;;;;;5010035;28;20218;-49
2021/06/02 11:38:33;;;;;;;2.80;1.90;;;23.50;31.30;;;;;;5010087;28;20717;-49
2021/06/02 11:40:59;;;;;;;2.83;2.25;;;23.50;31.30;;;;;;5009709;28;20296;-46
2021/06/02 11:43:25;;;;;;;3.67;2.00;;;23.50;31.30;;;;;;5009627;28;20593;-46
2021/06/02 11:45:52;;;;;;;3.63;2.33;;;23.50;31.40;;;;;;5013134;28;20250;-48
2021/06/02 11:48:17;;;;;;;2.72;2.20;;;23.60;31.50;;;;;;5014071;28;20249;-47
2021/06/02 11:50:43;;;;;;;2.60;1.90;;;23.50;31.40;;;;;;5012963;28;20202;-51
2021/06/02 11:53:10;;;;;;;4.13;2.40;;;23.50;31.40;;;;;;5011995;28;20203;-45
2021/06/02 11:55:36;;;;;;;3.10;2.05;;;23.50;31.40;;;;;;4997653;28;20231;-47
2021/06/02 11:58:03;;;;;;;2.30;2.10;;;23.50;31.40;;;;;;5013770;28;20191;-49
2021/06/02 12:00:29;;;;;;;2.30;2.03;;;23.50;31.40;;;;;;4998945;28;20214;-48
2021/06/02 12:02:55;;;;;;;3.00;2.13;;;23.50;31.50;;;;;;5002478;28;20314;-48
2021/06/02 12:05:21;;;;;;;2.10;1.95;;;23.50;31.40;;;;;;5013378;28;20242;-49
2021/06/02 12:07:47;;;;;;;2.63;1.90;;;23.50;31.40;;;;;;5013847;28;20210;-47
2021/06/02 12:10:12;;;;;;;2.45;1.95;;;23.50;31.50;;;;;;5013148;28;20346;-50
2021/06/02 12:12:38;;;;;;;1.83;1.73;;;23.50;31.50;;;;;;5013752;28;20211;-49
2021/06/02 12:15:04;;;;;;;1.80;1.70;;;23.50;31.50;;;;;;5013125;28;20230;-48
2021/06/02 12:17:30;;;;;;;2.00;1.80;;;23.50;31.50;;;;;;5013455;28;20203;-50
2021/06/02 12:19:56;;;;;;;2.03;1.90;;;23.50;31.50;;;;;;5013025;28;20709;-48
2021/06/02 12:22:22;;;;;;;1.85;1.75;;;23.50;31.50;;;;;;5013177;28;20203;-46
2021/06/02 12:24:48;;;;;;;2.08;1.80;;;23.50;31.50;;;;;;5012692;28;20223;-46
2021/06/02 12:27:14;;;;;;;3.00;1.70;;;23.50;31.50;;;;;;5011726;28;20218;-48
2021/06/02 12:29:40;;;;;;;2.00;1.90;;;23.60;31.60;;;;;;5012289;28;20214;-50
2021/06/02 12:32:06;;;;;;;2.42;2.13;;;23.50;31.50;;;;;;5013094;28;20207;-46
2021/06/02 12:34:35;;;;;;;2.00;1.90;;;23.50;31.50;;;;;;5012769;28;20246;-46
2021/06/02 12:37:02;;;;;;;2.85;1.70;;;23.50;31.50;;;;;;5019358;28;20195;-43
2021/06/02 12:39:28;;;;;;;2.03;1.63;;;23.60;31.40;;;;;;5005988;28;20206;-51
2021/06/02 12:41:54;;;;;;;4.63;2.17;;;23.60;31.30;;;;;;5004208;28;20211;-53
2021/06/02 12:44:20;;;;;;;2.50;2.05;;;23.70;31.50;;;;;;5015180;28;20253;-54